createdAt,value
2018-11-22T00:03:30.254Z,17.03
2018-11-22T00:07:37.557Z,16.73
2018-11-22T00:11:44.931Z,16.57
2018-11-22T00:15:51.346Z,15.37
2018-11-22T00:19:57.869Z,14.37
2018-11-22T00:24:04.236Z,13.77
2018-11-22T00:28:12.515Z,12.23
2018-11-22T00:32:18.890Z,14.90
2018-11-22T00:36:25.465Z,13.90
2018-11-22T00:40:32.324Z,14.53
2018-11-22T00:44:40.743Z,15.83
2018-11-22T00:48:47.122Z,14.03
2018-11-22T00:52:53.880Z,13.63
2018-11-22T00:57:00.287Z,14.80
2018-11-22T01:01:08.072Z,11.53
2018-11-22T01:05:17.335Z,13.67
2018-11-22T01:09:25.484Z,14.27
2018-11-22T01:13:31.889Z,13.40
2018-11-22T01:17:39.381Z,13.60
2018-11-22T01:21:47.239Z,11.63
2018-11-22T01:25:54.151Z,13.43
2018-11-22T01:30:00.631Z,13.17
2018-11-22T01:34:10.022Z,12.93
2018-11-22T01:38:16.512Z,13.63
2018-11-22T01:42:23.324Z,13.17
2018-11-22T01:46:29.671Z,11.77
2018-11-22T01:50:36.987Z,12.97
2018-11-22T01:58:51.308Z,12.27
2018-11-22T02:02:57.801Z,12.87
2018-11-22T02:07:05.593Z,11.70
2018-11-22T02:11:12.088Z,12.53
2018-11-22T02:15:20.095Z,12.33
2018-11-22T02:19:26.538Z,12.83
2018-11-22T02:23:33.770Z,11.57
2018-11-22T02:27:40.408Z,11.07
2018-11-22T02:31:46.811Z,12.13
2018-11-22T02:35:53.224Z,11.70
2018-11-22T02:39:59.889Z,11.83
2018-11-22T02:44:06.518Z,9.83
2018-11-22T02:48:13.098Z,9.90
2018-11-22T02:52:19.524Z,12.77
2018-11-22T02:56:26.909Z,6.07
2018-11-22T03:00:35.672Z,11.47
2018-11-22T03:04:42.140Z,11.40
2018-11-22T03:08:50.351Z,7.27
2018-11-22T03:12:56.860Z,11.30
2018-11-22T03:17:05.090Z,7.93
2018-11-22T03:21:11.741Z,11.17
2018-11-22T03:25:18.986Z,12.50
2018-11-22T03:29:26.056Z,7.70
2018-11-22T03:33:35.229Z,11.70
2018-11-22T03:37:41.842Z,11.60
2018-11-22T03:41:48.274Z,11.33
2018-11-22T03:45:56.180Z,7.10
2018-11-22T03:50:04.532Z,10.83
2018-11-22T03:54:11.841Z,10.40
2018-11-22T03:58:18.501Z,10.07
2018-11-22T04:02:25.339Z,10.73
2018-11-22T04:06:31.713Z,9.47
2018-11-22T04:10:39.470Z,9.30
2018-11-22T04:14:45.868Z,9.37
2018-11-22T04:18:53.100Z,9.33
2018-11-22T04:22:59.463Z,8.90
2018-11-22T04:27:06.173Z,8.87
2018-11-22T04:31:12.524Z,8.93
2018-11-22T04:35:21.428Z,8.03
2018-11-22T04:39:27.764Z,7.90
2018-11-22T04:43:34.236Z,8.37
2018-11-22T04:47:40.787Z,8.00
2018-11-22T04:51:48.370Z,8.07
2018-11-22T04:55:54.760Z,7.67
2018-11-22T05:00:01.306Z,9.87
2018-11-22T05:04:08.964Z,9.43
2018-11-22T05:08:15.421Z,9.90
2018-11-22T05:12:22.274Z,9.83
2018-11-22T05:16:29.136Z,11.10
2018-11-22T05:20:35.520Z,10.63
2018-11-22T05:24:43.347Z,10.90
2018-11-22T05:28:49.726Z,10.70
2018-11-22T05:32:56.480Z,10.57
2018-11-22T05:37:02.866Z,9.83
2018-11-22T05:41:10.662Z,11.47
2018-11-22T05:45:18.469Z,12.40
2018-11-22T05:49:24.986Z,10.03
2018-11-22T05:53:31.364Z,11.20
2018-11-22T05:57:38.983Z,10.07
2018-11-22T06:01:48.048Z,10.50
2018-11-22T06:05:54.625Z,11.00
2018-11-22T06:10:01.061Z,9.77
2018-11-22T06:14:09.452Z,10.27
2018-11-22T06:18:15.839Z,10.83
2018-11-22T06:22:22.222Z,7.97
2018-11-22T06:26:28.598Z,9.97
2018-11-22T06:30:36.492Z,10.60
2018-11-22T06:34:42.871Z,11.67
2018-11-22T06:38:49.320Z,11.30
2018-11-22T06:43:14.611Z,10.00
2018-11-22T06:47:23.311Z,10.50
2018-11-22T06:51:30.319Z,10.40
2018-11-22T06:55:38.840Z,11.20
2018-11-22T06:59:46.935Z,11.37
2018-11-22T07:04:14.812Z,10.57
2018-11-22T07:08:21.269Z,7.43
2018-11-22T07:12:27.813Z,11.37
2018-11-22T07:16:34.642Z,10.73
2018-11-22T07:20:41.496Z,11.60
2018-11-22T07:24:48.948Z,9.93
2018-11-22T07:28:55.398Z,11.60
2018-11-22T07:37:14.309Z,11.67
2018-11-22T07:41:20.738Z,11.10
2018-11-22T07:45:29.823Z,10.70
2018-11-22T07:49:37.769Z,12.03
2018-11-22T07:53:46.130Z,10.87
2018-11-22T07:57:53.710Z,11.63
2018-11-22T08:02:01.745Z,12.03
2018-11-22T08:06:11.485Z,12.07
2018-11-22T08:10:26.406Z,11.50
2018-11-22T08:14:32.904Z,11.53
2018-11-22T08:18:41.327Z,11.07
2018-11-22T08:22:50.078Z,12.50
2018-11-22T08:26:57.744Z,11.17
2018-11-22T08:31:05.473Z,11.60
2018-11-22T08:35:12.565Z,11.93
2018-11-22T08:39:19.121Z,10.87
2018-11-22T08:43:27.854Z,11.60
2018-11-22T08:47:37.036Z,13.27
2018-11-22T08:51:46.148Z,12.47
2018-11-22T08:55:52.850Z,9.87
2018-11-22T09:00:00.764Z,10.87
2018-11-22T09:04:07.897Z,11.07
2018-11-22T09:08:14.404Z,11.13
2018-11-22T09:12:22.217Z,9.63
2018-11-22T09:16:29.582Z,12.67
2018-11-22T09:20:37.819Z,13.10
2018-11-22T09:25:24.377Z,11.27
2018-11-22T09:29:30.850Z,14.03
2018-11-22T09:33:37.718Z,15.07
2018-11-22T09:37:44.051Z,11.43
2018-11-22T09:41:50.584Z,10.63
2018-11-22T09:45:57.290Z,12.83
2018-11-22T09:50:26.151Z,12.37
2018-11-22T09:54:32.687Z,11.10
2018-11-22T09:58:43.223Z,11.17
2018-11-22T10:02:49.828Z,11.33
2018-11-22T10:06:56.838Z,14.93
2018-11-22T10:11:24.417Z,11.70
2018-11-22T10:15:32.807Z,13.53
2018-11-22T10:19:40.517Z,15.00
2018-11-22T10:23:49.063Z,15.40
2018-11-22T10:27:56.660Z,8.77
2018-11-22T10:32:04.659Z,15.17
2018-11-22T10:36:11.892Z,15.00
2018-11-22T10:40:37.436Z,14.37
2018-11-22T10:44:44.013Z,13.07
2018-11-22T10:48:50.487Z,11.87
2018-11-22T10:52:56.987Z,12.83
2018-11-22T10:57:24.660Z,13.87
2018-11-22T11:01:50.004Z,15.73
2018-11-22T11:06:15.298Z,16.93
2018-11-22T11:10:22.376Z,17.93
2018-11-22T11:14:29.848Z,15.83
2018-11-22T11:18:36.585Z,9.63
2018-11-22T11:22:44.497Z,14.37
2018-11-22T11:26:52.339Z,16.27
2018-11-22T11:31:00.876Z,15.27
2018-11-22T11:35:09.492Z,12.17
2018-11-22T11:39:16.011Z,15.80
2018-11-22T11:43:22.521Z,13.90
2018-11-22T11:47:32.479Z,17.10
2018-11-22T11:51:38.921Z,18.53
2018-11-22T11:55:45.513Z,18.10
2018-11-22T11:59:52.432Z,17.40
2018-11-22T12:03:59.556Z,17.37
2018-11-22T12:08:06.041Z,19.03
2018-11-22T12:12:12.432Z,15.07
2018-11-22T12:16:18.891Z,18.70
2018-11-22T12:20:25.959Z,17.73
2018-11-22T12:24:32.403Z,19.50
2018-11-22T12:28:39.540Z,21.37
2018-11-22T12:33:04.585Z,29.90
2018-11-22T12:37:30.665Z,22.87
2018-11-22T12:41:37.110Z,22.80
2018-11-22T12:45:43.587Z,20.13
2018-11-22T12:49:57.408Z,18.03
2018-11-22T12:54:04.597Z,19.37
2018-11-22T12:58:12.472Z,20.43
2018-11-22T13:02:19.595Z,19.33
2018-11-22T13:06:26.156Z,20.40
2018-11-22T13:10:33.061Z,20.43
2018-11-22T13:14:39.619Z,20.83
2018-11-22T13:18:46.128Z,20.23
2018-11-22T13:22:52.576Z,19.13
2018-11-22T13:27:00.618Z,19.33
2018-11-22T13:31:09.080Z,16.53
2018-11-22T13:35:17.543Z,20.40
2018-11-22T13:39:24.019Z,21.07
2018-11-22T13:43:31.195Z,21.10
2018-11-22T13:47:38.474Z,20.40
2018-11-22T13:51:46.250Z,20.73
2018-11-22T13:55:53.067Z,16.23
2018-11-22T13:59:59.941Z,19.47
2018-11-22T14:04:07.815Z,20.00
2018-11-22T14:08:14.453Z,19.77
2018-11-22T14:12:20.919Z,19.30
2018-11-22T14:16:30.984Z,18.83
2018-11-22T14:20:38.059Z,16.40
2018-11-22T14:24:45.883Z,19.90
2018-11-22T14:28:52.347Z,18.73
2018-11-22T14:33:00.505Z,16.90
2018-11-22T14:37:07.120Z,13.13
2018-11-22T14:41:13.830Z,22.40
2018-11-22T14:45:21.213Z,21.63
2018-11-22T14:49:28.336Z,22.50
2018-11-22T14:53:36.080Z,22.83
2018-11-22T14:57:44.543Z,19.07
2018-11-22T15:01:51.050Z,19.87
2018-11-22T15:05:57.370Z,21.37
2018-11-22T15:10:04.026Z,20.90
2018-11-22T15:14:10.604Z,21.27
2018-11-22T15:18:17.200Z,21.37
2018-11-22T15:22:46.012Z,22.70
2018-11-22T15:26:53.267Z,17.70
2018-11-22T15:31:00.929Z,21.77
2018-11-22T15:35:11.122Z,20.97
2018-11-22T15:39:19.244Z,20.17
2018-11-22T15:43:27.689Z,20.57
2018-11-22T15:47:34.207Z,21.80
2018-11-22T15:51:40.775Z,22.17
2018-11-22T15:55:48.596Z,17.43
2018-11-22T15:59:55.016Z,21.73
2018-11-22T16:04:01.684Z,23.80
2018-11-22T16:08:09.113Z,23.87
2018-11-22T16:12:16.441Z,22.07
2018-11-22T16:16:22.902Z,23.80
2018-11-22T16:20:29.248Z,24.40
2018-11-22T16:24:39.322Z,23.40
2018-11-22T16:28:45.848Z,20.87
2018-11-22T16:32:52.516Z,23.17
2018-11-22T16:37:00.494Z,21.87
2018-11-22T16:41:09.409Z,22.90
2018-11-22T16:45:28.260Z,23.50
2018-11-22T16:49:34.741Z,25.07
2018-11-22T16:53:42.180Z,23.57
2018-11-22T16:58:09.507Z,24.53
2018-11-22T17:02:16.390Z,24.50
2018-11-22T17:06:26.179Z,22.20
2018-11-22T17:10:33.301Z,24.57
2018-11-22T17:14:39.839Z,23.17
2018-11-22T17:18:46.341Z,24.10
2018-11-22T17:22:53.423Z,23.07
2018-11-22T17:27:00.987Z,22.87
2018-11-22T17:31:07.484Z,24.73
2018-11-22T17:35:18.526Z,24.33
2018-11-22T17:39:31.348Z,25.17
2018-11-22T17:43:33.308Z,23.90
2018-11-22T17:47:39.878Z,23.70
2018-11-22T17:51:46.486Z,25.63
2018-11-22T17:55:53.425Z,24.43
2018-11-22T18:00:00.424Z,27.20
2018-11-22T18:04:07.500Z,25.93
2018-11-22T18:08:15.152Z,26.20
2018-11-22T18:12:21.613Z,27.03
2018-11-22T18:16:28.351Z,26.20
2018-11-22T18:20:34.806Z,25.53
2018-11-22T18:24:43.043Z,24.83
2018-11-22T18:28:49.516Z,24.87
2018-11-22T18:33:00.083Z,26.53
2018-11-22T18:37:08.219Z,29.03
2018-11-22T18:41:16.061Z,26.40
2018-11-22T18:45:39.331Z,27.33
2018-11-22T18:49:46.274Z,26.63
2018-11-22T18:53:52.784Z,29.40
2018-11-22T18:58:00.113Z,26.60
2018-11-22T19:02:06.934Z,29.33
2018-11-22T19:06:15.110Z,30.73
2018-11-22T19:10:30.008Z,30.60
2018-11-22T19:14:37.032Z,30.00
2018-11-22T19:18:53.659Z,28.93
2018-11-22T19:23:01.351Z,28.77
2018-11-22T19:27:08.226Z,28.67
2018-11-22T19:31:19.866Z,29.33
2018-11-22T19:35:28.223Z,29.60
2018-11-22T19:39:34.741Z,30.73
2018-11-22T19:43:41.328Z,29.87
2018-11-22T19:47:52.603Z,29.93
2018-11-22T19:51:59.098Z,30.53
2018-11-22T19:56:09.950Z,31.80
2018-11-22T20:00:17.585Z,33.80
2018-11-22T20:04:25.089Z,32.50
2018-11-22T20:08:33.541Z,29.27
2018-11-22T20:12:40.923Z,33.53
2018-11-22T20:16:47.828Z,31.23
2018-11-22T20:20:54.897Z,32.57
2018-11-22T20:25:01.448Z,32.03
2018-11-22T20:29:08.210Z,29.73
2018-11-22T20:33:14.749Z,31.83
2018-11-22T20:37:22.101Z,29.93
2018-11-22T20:41:28.534Z,30.23
2018-11-22T20:45:40.825Z,31.53
2018-11-22T20:49:42.916Z,29.60
2018-11-22T20:53:50.007Z,29.83
2018-11-22T20:58:00.515Z,29.63
2018-11-22T21:02:07.384Z,30.47
2018-11-22T21:06:13.823Z,30.30
2018-11-22T21:10:24.558Z,34.80
2018-11-22T21:14:31.064Z,32.57
2018-11-22T21:18:38.497Z,34.10
2018-11-22T21:22:45.283Z,35.17
2018-11-22T21:26:52.790Z,33.03
2018-11-22T21:30:59.460Z,35.33
2018-11-22T21:35:06.559Z,33.90
2018-11-22T21:39:13.711Z,34.97
2018-11-22T21:43:20.696Z,34.17
2018-11-22T21:47:27.340Z,33.00
2018-11-22T21:51:39.398Z,31.10
2018-11-22T21:55:43.212Z,33.60
2018-11-22T21:59:50.758Z,33.53
2018-11-22T22:03:57.254Z,30.50
2018-11-22T22:08:03.974Z,34.50
2018-11-22T22:12:10.535Z,35.67
2018-11-22T22:16:19.273Z,35.70
2018-11-22T22:20:35.723Z,35.50
2018-11-22T22:24:44.601Z,33.43
2018-11-22T22:28:51.195Z,30.27
2018-11-22T22:32:59.154Z,29.23
2018-11-22T22:37:05.690Z,28.33
2018-11-22T22:41:12.262Z,29.80
2018-11-22T22:45:19.770Z,30.00
2018-11-22T22:49:28.850Z,29.63
2018-11-22T22:53:35.278Z,28.30
2018-11-22T22:57:43.564Z,29.67
2018-11-22T23:01:50.028Z,28.30
2018-11-22T23:05:57.041Z,28.20
2018-11-22T23:10:03.491Z,28.40
2018-11-22T23:14:10.106Z,28.90
2018-11-22T23:18:16.659Z,30.10
2018-11-22T23:22:23.724Z,29.00
2018-11-22T23:26:30.430Z,27.47
2018-11-22T23:30:37.119Z,30.03
2018-11-22T23:34:46.665Z,29.80
2018-11-22T23:38:53.755Z,28.63
2018-11-22T23:43:00.211Z,29.97
2018-11-22T23:47:06.868Z,29.23
2018-11-22T23:51:13.303Z,26.80
2018-11-22T23:55:20.761Z,27.07
2018-11-22T23:59:27.216Z,27.83
